Skip Navigation Links Skip Navigation Links

Current Weather

Gatwick Apt, London

For information only: do not use for flight planning or navigation.
Latest weather
Observation time Wednesday, November 25, 2020 1:20 AM GMT
Local time Wednesday, November 25, 2020 1:48 AM GMT
Flight conditions Marginal Visual Meteorological Conditions
Winds
Wind direction South-Southeast (160°)
Winds variable from 120° to 190°
Wind speed 5 mph
Visibility 6.2 mi.
Sky condition
Ceiling 1,700 ft. broken clouds
Cloud layer broken clouds 1,700 ft.
Temperature 50°F
Dewpoint 46°F
Altimeter 29.85 in.Hg
Derived measurements
Relative humidity 87%
Wind chill 48°F
Density altitude -368 ft.
METAR EGKK 250120Z 16004KT 120V190 9999 BKN017 10/08 Q1011

Settings

Location code

InnerDrive.Weather 4.0.6770.0 Release CLR 4.0.30319.42000
Copyright ©2018 Inner Drive Technology. All rights reserved. Portions Copyright ©1986-2018 David Braverman.

Find weather

Site navigation


Skip Navigation Links

Place info

Page info

PayPal - The safer, easier way to pay online!

Return home.

Copyright ©2020 Inner Drive Technology. Purveyors of fine, hand-crafted computer software. Page printed 2020-11-25T01:48:42 UTC.